createdAt,value
2023-02-20T00:03:55.335Z,100032.03
2023-02-20T00:09:20.954Z,100029.69
2023-02-20T00:14:45.560Z,100026.65
2023-02-20T00:20:10.030Z,100031.17
2023-02-20T00:25:34.273Z,100026.89
2023-02-20T00:30:59.594Z,100018.15
2023-02-20T00:36:24.431Z,100016.05
2023-02-20T00:41:49.728Z,100002.59
2023-02-20T00:47:13.731Z,99992.02
2023-02-20T00:52:39.825Z,99990.62
2023-02-20T00:58:05.181Z,100000.11
2023-02-20T01:03:30.123Z,99986.49
2023-02-20T01:08:54.141Z,99983.60
2023-02-20T01:14:19.137Z,99988.92
2023-02-20T01:19:45.201Z,99985.34
2023-02-20T01:25:09.549Z,99970.34
2023-02-20T01:30:35.216Z,99970.79
2023-02-20T01:36:00.373Z,99973.09
2023-02-20T01:41:25.942Z,99974.67
2023-02-20T01:46:54.269Z,99962.05
2023-02-20T01:52:34.326Z,99953.30
2023-02-20T01:58:10.433Z,99938.48
2023-02-20T02:03:41.214Z,99922.77
2023-02-20T02:09:30.088Z,99914.48
2023-02-20T02:14:54.283Z,99910.79
2023-02-20T02:20:55.280Z,99914.33
2023-02-20T02:26:41.048Z,99907.02
2023-02-20T02:32:32.698Z,99890.99
2023-02-20T02:38:03.914Z,99881.15
2023-02-20T02:43:42.117Z,99867.05
2023-02-20T02:49:36.639Z,99857.92
2023-02-20T02:55:01.642Z,99864.83
2023-02-20T03:00:31.589Z,99864.12
2023-02-20T03:06:18.758Z,99860.66
2023-02-20T03:11:43.631Z,99854.41
2023-02-20T03:17:13.832Z,99845.42
2023-02-20T03:22:58.294Z,99835.02
2023-02-20T03:28:33.533Z,99834.21
2023-02-20T03:34:28.286Z,99827.05
2023-02-20T03:40:17.263Z,99821.23
2023-02-20T03:45:43.506Z,99824.37
2023-02-20T03:51:26.994Z,99838.61
2023-02-20T03:57:18.892Z,99830.49
2023-02-20T04:02:48.975Z,99818.44
2023-02-20T04:08:18.641Z,99821.29
2023-02-20T04:13:45.188Z,99811.39
2023-02-20T04:19:10.215Z,99808.97
2023-02-20T04:25:00.146Z,99801.57
2023-02-20T04:30:26.181Z,99800.30
2023-02-20T04:35:50.918Z,99807.45
2023-02-20T04:41:15.288Z,99810.49
2023-02-20T04:46:39.934Z,99806.57
2023-02-20T04:52:04.631Z,99798.33
2023-02-20T04:57:30.119Z,99798.69
2023-02-20T05:02:55.429Z,99789.48
2023-02-20T05:08:20.874Z,99792.71
2023-02-20T05:13:45.149Z,99791.57
2023-02-20T05:19:09.779Z,99769.41
2023-02-20T05:24:34.266Z,99772.08
2023-02-20T05:30:00.829Z,99768.59
2023-02-20T05:35:25.145Z,99753.66
2023-02-20T05:40:49.985Z,99731.60
2023-02-20T05:46:15.664Z,99731.39
2023-02-20T05:51:40.445Z,99731.13
2023-02-20T05:57:06.759Z,99729.70
2023-02-20T06:02:34.891Z,99732.67
2023-02-20T06:08:01.029Z,99731.55
2023-02-20T06:13:27.249Z,99724.95
2023-02-20T06:18:53.156Z,99723.23
2023-02-20T06:24:18.649Z,99706.64
2023-02-20T06:29:47.234Z,99690.53
2023-02-20T06:35:13.541Z,99699.29
2023-02-20T06:40:40.177Z,99697.97
2023-02-20T06:46:08.222Z,99687.38
2023-02-20T06:51:34.412Z,99670.67
2023-02-20T06:56:59.050Z,99667.45
2023-02-20T07:02:23.947Z,99672.12
2023-02-20T07:07:49.605Z,99662.35
2023-02-20T07:13:13.441Z,99647.16
2023-02-20T07:18:38.717Z,99644.80
2023-02-20T07:24:03.884Z,99634.97
2023-02-20T07:29:28.509Z,99615.02
2023-02-20T07:35:03.682Z,99605.54
2023-02-20T07:40:30.936Z,99602.96
2023-02-20T07:45:55.088Z,99592.79
2023-02-20T07:51:20.189Z,99593.02
2023-02-20T07:56:44.651Z,99579.19
2023-02-20T08:02:08.716Z,99571.13
2023-02-20T08:07:33.143Z,99573.84
2023-02-20T08:12:58.568Z,99580.66
2023-02-20T08:18:24.047Z,99559.63
2023-02-20T08:23:49.607Z,99532.79
2023-02-20T08:29:14.855Z,99526.79
2023-02-20T08:34:38.987Z,99521.61
2023-02-20T08:40:07.173Z,99518.34
2023-02-20T08:45:32.194Z,99512.36
2023-02-20T08:50:56.612Z,99495.35
2023-02-20T08:56:22.732Z,99495.10
2023-02-20T09:01:47.010Z,99470.89
2023-02-20T09:07:12.401Z,99460.28
2023-02-20T09:12:36.929Z,99449.33
2023-02-20T09:18:01.396Z,99461.15
2023-02-20T09:23:27.315Z,99471.05
2023-02-20T09:28:52.139Z,99438.04
2023-02-20T09:34:16.777Z,99431.79
2023-02-20T09:39:41.438Z,99424.55
2023-02-20T09:45:25.675Z,99407.88
2023-02-20T09:51:14.795Z,99374.90
2023-02-20T09:56:43.673Z,99335.85
2023-02-20T10:02:32.478Z,99369.70
2023-02-20T10:07:56.992Z,99323.22
2023-02-20T10:13:31.662Z,99350.13
2023-02-20T10:19:22.433Z,99329.33
2023-02-20T10:24:56.454Z,99323.00
2023-02-20T10:30:32.398Z,99324.42
2023-02-20T10:36:14.892Z,99319.87
2023-02-20T10:41:57.011Z,99315.37
2023-02-20T10:47:33.360Z,99296.53
2023-02-20T10:53:20.849Z,99282.95
2023-02-20T10:58:54.575Z,99283.54
2023-02-20T11:04:27.416Z,99273.09
2023-02-20T11:09:52.119Z,99256.90
2023-02-20T11:15:23.232Z,99230.02
2023-02-20T11:20:47.011Z,99226.26
2023-02-20T11:26:14.853Z,99219.68
2023-02-20T11:31:40.072Z,99200.26
2023-02-20T11:37:08.215Z,99187.40
2023-02-20T11:42:36.147Z,99163.29
2023-02-20T11:48:18.000Z,99122.63
2023-02-20T11:53:44.762Z,99094.14
2023-02-20T11:59:37.072Z,99068.25
2023-02-20T12:05:06.257Z,99058.40
2023-02-20T12:10:38.741Z,99053.82
2023-02-20T12:16:18.468Z,99062.79
2023-02-20T12:22:10.583Z,99061.99
2023-02-20T12:28:05.335Z,99036.17
2023-02-20T12:33:57.582Z,99030.40
2023-02-20T12:39:44.837Z,99015.50
2023-02-20T12:45:21.098Z,99013.92
2023-02-20T12:51:14.956Z,99005.88
2023-02-20T12:57:13.421Z,98998.02
2023-02-20T13:02:47.326Z,98963.92
2023-02-20T13:08:41.580Z,98968.11
2023-02-20T13:14:23.436Z,98952.70
2023-02-20T13:20:07.100Z,98971.38
2023-02-20T13:25:35.456Z,98944.30
2023-02-20T13:31:36.749Z,98932.98
2023-02-20T13:37:02.250Z,98941.89
2023-02-20T13:42:30.266Z,98947.86
2023-02-20T13:48:30.298Z,98941.30
2023-02-20T13:54:18.555Z,98935.23
2023-02-20T13:59:45.112Z,98958.09
2023-02-20T14:05:24.249Z,98952.27
2023-02-20T14:10:50.180Z,98949.06
2023-02-20T14:16:45.378Z,98931.51
2023-02-20T14:22:22.631Z,98934.97
2023-02-20T14:27:49.464Z,98924.45
2023-02-20T14:33:29.614Z,98932.50
2023-02-20T14:39:14.361Z,98920.10
2023-02-20T14:44:38.902Z,98932.69
2023-02-20T14:50:21.670Z,98907.02
2023-02-20T14:55:51.599Z,98908.77
2023-02-20T15:01:25.342Z,98930.86
2023-02-20T15:06:52.754Z,98941.08
2023-02-20T15:12:39.800Z,98951.80
2023-02-20T15:18:14.342Z,98933.98
2023-02-20T15:23:42.295Z,98934.73
2023-02-20T15:29:28.586Z,98942.07
2023-02-20T15:34:56.410Z,98939.31
2023-02-20T15:40:31.805Z,98942.88
2023-02-20T15:45:56.106Z,98926.59
2023-02-20T15:51:22.449Z,98957.36
2023-02-20T15:56:47.925Z,98963.45
2023-02-20T16:02:20.079Z,98977.56
2023-02-20T16:07:44.925Z,98976.41
2023-02-20T16:13:23.056Z,98995.89
2023-02-20T16:18:47.179Z,99013.92
2023-02-20T16:24:11.570Z,99037.48
2023-02-20T16:29:37.563Z,99044.89
2023-02-20T16:35:02.738Z,99049.73
2023-02-20T16:40:36.412Z,99070.23
2023-02-20T16:46:00.948Z,99071.50
2023-02-20T16:51:25.448Z,99071.34
2023-02-20T16:56:49.550Z,99068.77
2023-02-20T17:02:20.428Z,99083.19
2023-02-20T17:07:46.003Z,99093.95
2023-02-20T17:13:09.663Z,99106.11
2023-02-20T17:18:34.756Z,99096.56
2023-02-20T17:23:59.221Z,99110.73
2023-02-20T17:29:23.614Z,99102.91
2023-02-20T17:34:51.542Z,99119.32
2023-02-20T17:40:17.419Z,99127.89
2023-02-20T17:45:41.891Z,99127.11
2023-02-20T17:51:08.074Z,99099.36
2023-02-20T17:56:32.897Z,99097.14
2023-02-20T18:01:57.306Z,99092.86
2023-02-20T18:07:22.203Z,99087.83
2023-02-20T18:13:02.894Z,99070.17
2023-02-20T18:18:33.225Z,99053.88
2023-02-20T18:23:59.209Z,99048.95
2023-02-20T18:29:26.774Z,99061.75
2023-02-20T18:34:51.216Z,99056.18
2023-02-20T18:40:19.358Z,99065.73
2023-02-20T18:45:45.054Z,99073.30
2023-02-20T18:51:10.677Z,99077.77
2023-02-20T18:56:39.302Z,99074.25
2023-02-20T19:02:06.358Z,99072.56
2023-02-20T19:07:50.752Z,99067.63
2023-02-20T19:13:18.207Z,99067.66
2023-02-20T19:18:50.430Z,99060.27
2023-02-20T19:24:16.056Z,99065.77
2023-02-20T19:29:42.428Z,99074.35
2023-02-20T19:35:07.329Z,99074.23
2023-02-20T19:40:35.254Z,99073.95
2023-02-20T19:45:59.602Z,99051.71
2023-02-20T19:51:24.600Z,99040.84
2023-02-20T19:56:54.302Z,99024.33
2023-02-20T20:02:18.900Z,99032.53
2023-02-20T20:07:43.501Z,99040.93
2023-02-20T20:13:07.557Z,99049.05
2023-02-20T20:18:32.199Z,99041.88
2023-02-20T20:23:57.610Z,99043.40
2023-02-20T20:29:21.548Z,99042.44
2023-02-20T20:34:52.612Z,99042.33
2023-02-20T20:40:17.773Z,99044.96
2023-02-20T20:45:42.626Z,99037.88
2023-02-20T20:51:07.250Z,99026.16
2023-02-20T20:56:32.070Z,99034.24
2023-02-20T21:01:58.291Z,99029.50
2023-02-20T21:07:24.945Z,99017.09
2023-02-20T21:12:49.910Z,99004.61
2023-02-20T21:18:14.720Z,98993.92
2023-02-20T21:23:45.666Z,98982.17
2023-02-20T21:29:10.723Z,98985.82
2023-02-20T21:34:34.606Z,98980.25
2023-02-20T21:39:58.884Z,98971.73
2023-02-20T21:45:23.223Z,98972.91
2023-02-20T21:50:47.607Z,98979.80
2023-02-20T21:56:11.862Z,98988.30
2023-02-20T22:01:39.165Z,98970.83
2023-02-20T22:07:21.702Z,98969.92
2023-02-20T22:13:05.548Z,98962.30
2023-02-20T22:18:48.537Z,98972.27
2023-02-20T22:24:38.102Z,98976.51
2023-02-20T22:30:22.669Z,98980.77
2023-02-20T22:36:06.151Z,98982.83
2023-02-20T22:41:48.749Z,98990.77
2023-02-20T22:47:32.618Z,98981.47
2023-02-20T22:53:14.924Z,98978.76
2023-02-20T22:58:57.708Z,98964.30
2023-02-20T23:04:40.922Z,98943.81
2023-02-20T23:10:26.488Z,98938.10
2023-02-20T23:16:09.337Z,98962.20
2023-02-20T23:21:52.872Z,98974.96
2023-02-20T23:27:35.728Z,98949.77
2023-02-20T23:33:18.802Z,98976.27
2023-02-20T23:39:02.137Z,98972.86
2023-02-20T23:44:45.598Z,98973.30
2023-02-20T23:50:28.426Z,98971.69
2023-02-20T23:56:12.676Z,98962.09
